Time;durP1;ratioP1;P1;durP2;ratioP2;P2;SDS_P1;SDS_P2;PMS_P1;PMS_P2;Temp;Humidity;BMP_temperature;BMP_pressure;BME280_temperature;BME280_humidity;BME280_pressure;Samples;Min_cycle;Max_cycle;Signal;HPM_P1;HPM_P2
2023/01/07 00:01:32;;;;;;;;;;;18.40;66.80;;;;;;4965929;28;852;-70
2023/01/07 00:03:58;;;;;;;;;;;18.40;66.80;;;;;;4965646;28;870;-71
2023/01/07 00:06:27;;;;;;;;;;;18.40;66.80;;;;;;4968224;28;1313;-71
2023/01/07 00:08:53;;;;;;;;;;;18.30;66.80;;;;;;4964922;28;1965;-71
2023/01/07 00:11:39;;;;;;;;;;;18.40;66.80;;;;;;4966613;28;1350;-71
2023/01/07 00:14:05;;;;;;;;;;;18.30;66.80;;;;;;4968820;28;1220;-71
2023/01/07 00:16:31;;;;;;;;;;;18.30;66.80;;;;;;4964883;28;1362;-70
2023/01/07 00:18:57;;;;;;;;;;;18.30;66.80;;;;;;4983103;28;1421;-71
2023/01/07 00:21:23;;;;;;;;;;;18.30;66.90;;;;;;4965228;28;867;-71
2023/01/07 00:23:48;;;;;;;;;;;18.30;66.90;;;;;;4965537;28;899;-70
2023/01/07 00:26:15;;;;;;;;;;;18.30;66.80;;;;;;4966557;28;1366;-71
2023/01/07 00:28:40;;;;;;;;;;;18.30;66.90;;;;;;4965489;28;2002;-71
2023/01/07 00:31:07;;;;;;;;;;;18.30;66.90;;;;;;4968945;28;971;-71
2023/01/07 00:33:37;;;;;;;;;;;18.30;66.90;;;;;;4968030;28;862;-71
2023/01/07 00:36:04;;;;;;;;;;;18.30;66.90;;;;;;4967681;28;1385;-70
2023/01/07 00:38:30;;;;;;;;;;;18.30;66.90;;;;;;4967737;28;1367;-70
2023/01/07 00:40:56;;;;;;;;;;;18.30;67.00;;;;;;4965298;28;871;-71
2023/01/07 00:43:21;;;;;;;;;;;18.30;67.00;;;;;;4963610;28;1287;-70
2023/01/07 00:45:46;;;;;;;;;;;18.30;67.00;;;;;;4982890;28;1266;-70
2023/01/07 00:48:12;;;;;;;;;;;18.30;67.00;;;;;;4962793;28;1960;-71
2023/01/07 00:50:37;;;;;;;;;;;18.30;67.00;;;;;;4965662;28;872;-70
2023/01/07 00:53:03;;;;;;;;;;;18.30;67.10;;;;;;4968240;28;999;-70
2023/01/07 00:55:29;;;;;;;;;;;18.30;67.00;;;;;;4968212;28;1194;-69
2023/01/07 00:57:54;;;;;;;;;;;18.30;67.00;;;;;;4967801;28;940;-70
2023/01/07 01:00:20;;;;;;;;;;;18.30;67.00;;;;;;4966052;28;1278;-71
2023/01/07 01:02:46;;;;;;;;;;;18.30;67.10;;;;;;4962620;28;1152;-71
2023/01/07 01:05:11;;;;;;;;;;;18.30;67.10;;;;;;4964574;28;1370;-70
2023/01/07 01:07:37;;;;;;;;;;;18.30;67.00;;;;;;4964717;28;1920;-71
2023/01/07 01:10:02;;;;;;;;;;;18.30;67.10;;;;;;4962592;28;840;-70
2023/01/07 01:12:28;;;;;;;;;;;18.30;67.10;;;;;;4965340;28;911;-70
2023/01/07 01:14:53;;;;;;;;;;;18.30;67.10;;;;;;4981663;28;1694;-71
2023/01/07 01:17:19;;;;;;;;;;;18.30;67.10;;;;;;4965212;28;939;-71
2023/01/07 01:19:45;;;;;;;;;;;18.30;67.10;;;;;;4966664;28;822;-71
2023/01/07 01:22:10;;;;;;;;;;;18.30;67.10;;;;;;4965933;28;883;-71
2023/01/07 01:24:35;;;;;;;;;;;18.30;67.10;;;;;;4949445;28;1334;-70
2023/01/07 01:27:01;;;;;;;;;;;18.30;67.10;;;;;;4963812;28;1898;-71
2023/01/07 01:29:26;;;;;;;;;;;18.30;67.10;;;;;;4965753;28;958;-71
2023/01/07 01:31:52;;;;;;;;;;;18.20;67.10;;;;;;4967042;28;1294;-70
2023/01/07 01:34:17;;;;;;;;;;;18.20;67.10;;;;;;4961811;28;1255;-71
2023/01/07 01:36:43;;;;;;;;;;;18.20;67.10;;;;;;4956134;28;1410;-71
2023/01/07 01:39:08;;;;;;;;;;;18.30;67.20;;;;;;4965635;28;1355;-70
2023/01/07 01:41:34;;;;;;;;;;;18.20;67.20;;;;;;4964726;28;880;-71
2023/01/07 01:43:59;;;;;;;;;;;18.20;67.20;;;;;;4964457;28;1381;-70
2023/01/07 01:46:25;;;;;;;;;;;18.20;67.20;;;;;;4963585;28;1256;-70
2023/01/07 01:49:01;;;;;;;;;;;18.20;67.20;;;;;;4965015;28;1934;-71
2023/01/07 01:51:27;;;;;;;;;;;18.20;67.20;;;;;;4968597;28;958;-70
2023/01/07 01:53:53;;;;;;;;;;;18.30;67.30;;;;;;4947789;28;1323;-70
2023/01/07 01:56:19;;;;;;;;;;;18.20;67.20;;;;;;4970359;28;1292;-71
2023/01/07 01:58:46;;;;;;;;;;;18.20;67.30;;;;;;4973661;28;1279;-70
2023/01/07 02:01:12;;;;;;;;;;;18.20;67.20;;;;;;4962928;28;920;-70
2023/01/07 02:03:37;;;;;;;;;;;18.20;67.20;;;;;;4963535;28;1278;-71
2023/01/07 02:06:03;;;;;;;;;;;18.20;67.30;;;;;;4951329;28;1357;-70
2023/01/07 02:08:28;;;;;;;;;;;18.20;67.30;;;;;;4966531;28;1930;-70
2023/01/07 02:11:17;;;;;;;;;;;18.20;67.30;;;;;;4965318;28;1049;-71
2023/01/07 02:14:01;;;;;;;;;;;18.20;67.30;;;;;;4966761;28;1402;-70
2023/01/07 02:16:26;;;;;;;;;;;18.20;67.30;;;;;;4966719;28;1291;-70
2023/01/07 02:18:52;;;;;;;;;;;18.20;67.30;;;;;;4964067;28;1157;-70
2023/01/07 02:21:37;;;;;;;;;;;18.20;67.30;;;;;;4960043;28;1209;-70
2023/01/07 02:24:18;;;;;;;;;;;18.20;67.30;;;;;;4965389;28;1091;-68
2023/01/07 02:27:02;;;;;;;;;;;18.20;67.30;;;;;;4966265;28;884;-69
2023/01/07 02:29:31;;;;;;;;;;;18.20;67.30;;;;;;4987259;28;1260;-70
2023/01/07 02:32:05;;;;;;;;;;;18.20;67.30;;;;;;4966170;28;1186;-69
2023/01/07 02:34:31;;;;;;;;;;;18.20;67.30;;;;;;4970576;28;1463;-71
2023/01/07 02:36:59;;;;;;;;;;;18.20;67.40;;;;;;4969019;28;1488;-70
2023/01/07 02:39:27;;;;;;;;;;;18.20;67.40;;;;;;4968015;28;1384;-73
2023/01/07 02:41:56;;;;;;;;;;;18.20;67.40;;;;;;4968686;28;1293;-72
2023/01/07 02:44:41;;;;;;;;;;;18.20;67.40;;;;;;4966463;28;1372;-71
2023/01/07 02:47:21;;;;;;;;;;;18.20;67.40;;;;;;4970101;28;1902;-71
2023/01/07 02:49:47;;;;;;;;;;;18.20;67.40;;;;;;4968651;28;1063;-72
2023/01/07 02:52:17;;;;;;;;;;;18.20;67.40;;;;;;4967957;28;1270;-71
2023/01/07 02:54:42;;;;;;;;;;;18.20;67.40;;;;;;4966046;28;1380;-71
2023/01/07 02:57:17;;;;;;;;;;;18.20;67.40;;;;;;4966002;28;808;-72
2023/01/07 02:59:42;;;;;;;;;;;18.20;67.40;;;;;;4968161;28;872;-72
2023/01/07 03:02:17;;;;;;;;;;;18.10;67.40;;;;;;4980501;28;1264;-72
2023/01/07 03:04:51;;;;;;;;;;;18.20;67.50;;;;;;4955954;28;1335;-71
2023/01/07 03:07:16;;;;;;;;;;;18.20;67.40;;;;;;4966073;28;1957;-71
2023/01/07 03:09:42;;;;;;;;;;;18.20;67.50;;;;;;4976542;28;1255;-71
2023/01/07 03:12:16;;;;;;;;;;;18.20;67.50;;;;;;4969778;28;832;-71
2023/01/07 03:14:41;;;;;;;;;;;18.10;67.40;;;;;;4969242;28;1275;-71
2023/01/07 03:17:07;;;;;;;;;;;18.20;67.50;;;;;;4966111;28;1176;-71
2023/01/07 03:19:34;;;;;;;;;;;18.20;67.50;;;;;;4973337;28;1006;-70
2023/01/07 03:22:00;;;;;;;;;;;18.20;67.50;;;;;;4971944;28;848;-70
2023/01/07 03:24:25;;;;;;;;;;;18.20;67.50;;;;;;4967679;28;1357;-71
2023/01/07 03:26:51;;;;;;;;;;;18.10;67.40;;;;;;4964363;28;820;-71
2023/01/07 03:29:17;;;;;;;;;;;18.20;67.50;;;;;;4966634;28;1903;-70
2023/01/07 03:31:45;;;;;;;;;;;18.20;67.50;;;;;;4968448;28;886;-69
2023/01/07 03:34:14;;;;;;;;;;;18.10;67.40;;;;;;4968329;28;808;-70
2023/01/07 03:36:48;;;;;;;;;;;18.10;67.50;;;;;;4966204;28;1221;-70
2023/01/07 03:39:13;;;;;;;;;;;18.10;67.40;;;;;;4965125;28;1282;-70
2023/01/07 03:44:23;;;;;;;;;;;18.20;67.50;;;;;;4967334;28;1402;-71
2023/01/07 03:46:49;;;;;;;;;;;18.10;67.40;;;;;;4964587;28;907;-70
2023/01/07 03:49:14;;;;;;;;;;;18.10;67.40;;;;;;4967471;28;1895;-70
2023/01/07 03:51:39;;;;;;;;;;;18.10;67.40;;;;;;4980020;28;1064;-70
2023/01/07 03:54:05;;;;;;;;;;;18.10;67.40;;;;;;4967296;28;911;-70
2023/01/07 03:56:30;;;;;;;;;;;18.10;67.40;;;;;;4968015;28;1230;-71
2023/01/07 03:58:56;;;;;;;;;;;18.10;67.40;;;;;;4964592;28;990;-70
2023/01/07 04:01:21;;;;;;;;;;;18.10;67.40;;;;;;4966254;28;955;-70
2023/01/07 04:03:47;;;;;;;;;;;18.10;67.40;;;;;;4964095;28;1288;-70
2023/01/07 04:06:12;;;;;;;;;;;18.10;67.40;;;;;;4967291;28;1351;-71
2023/01/07 04:08:38;;;;;;;;;;;18.10;67.40;;;;;;4967907;28;1956;-71
2023/01/07 04:11:03;;;;;;;;;;;18.10;67.40;;;;;;4964693;28;900;-71
2023/01/07 04:13:29;;;;;;;;;;;18.10;67.40;;;;;;4965102;28;958;-71
2023/01/07 04:15:54;;;;;;;;;;;18.10;67.50;;;;;;4967345;28;1370;-71
2023/01/07 04:18:19;;;;;;;;;;;18.10;67.50;;;;;;4971888;28;1292;-72
2023/01/07 04:20:46;;;;;;;;;;;18.10;67.40;;;;;;4972578;28;855;-71
2023/01/07 04:23:12;;;;;;;;;;;18.10;67.50;;;;;;4963456;28;933;-71
2023/01/07 04:25:37;;;;;;;;;;;18.10;67.50;;;;;;4965759;28;1275;-71
2023/01/07 04:28:03;;;;;;;;;;;18.10;67.50;;;;;;4967335;28;1910;-71
2023/01/07 04:30:28;;;;;;;;;;;18.10;67.50;;;;;;4966807;28;1184;-71
2023/01/07 04:32:54;;;;;;;;;;;18.10;67.50;;;;;;4973745;28;1185;-71
2023/01/07 04:35:19;;;;;;;;;;;18.10;67.50;;;;;;4967574;28;1252;-71
2023/01/07 04:37:45;;;;;;;;;;;18.10;67.50;;;;;;4966307;28;838;-71
2023/01/07 04:40:10;;;;;;;;;;;18.10;67.50;;;;;;4962761;28;970;-71
2023/01/07 04:42:36;;;;;;;;;;;18.10;67.50;;;;;;4975223;28;1263;-70
2023/01/07 04:45:01;;;;;;;;;;;18.10;67.50;;;;;;4980559;28;1382;-70
2023/01/07 04:47:27;;;;;;;;;;;18.10;67.50;;;;;;4968207;28;1990;-70
2023/01/07 04:49:52;;;;;;;;;;;18.10;67.50;;;;;;4965728;28;1010;-70
2023/01/07 04:52:18;;;;;;;;;;;18.10;67.50;;;;;;4982128;28;1325;-70
2023/01/07 04:54:43;;;;;;;;;;;18.10;67.50;;;;;;4963747;28;1300;-70
2023/01/07 04:57:09;;;;;;;;;;;18.10;68.30;;;;;;4982966;28;1304;-70
2023/01/07 04:59:34;;;;;;;;;;;18.10;67.50;;;;;;4966529;28;841;-70
2023/01/07 05:02:00;;;;;;;;;;;18.10;67.60;;;;;;4982525;28;1590;-70
2023/01/07 05:04:25;;;;;;;;;;;18.10;67.60;;;;;;4967685;28;1344;-70
2023/01/07 05:06:50;;;;;;;;;;;18.10;67.60;;;;;;4966591;28;852;-70
2023/01/07 05:09:16;;;;;;;;;;;18.10;67.50;;;;;;4965854;28;1957;-70
2023/01/07 05:11:41;;;;;;;;;;;18.10;67.50;;;;;;4984827;28;1871;-70
2023/01/07 05:14:07;;;;;;;;;;;18.10;67.40;;;;;;4965897;28;869;-70
2023/01/07 05:16:32;;;;;;;;;;;18.10;67.50;;;;;;4967191;28;1318;-70
2023/01/07 05:18:58;;;;;;;;;;;18.20;67.40;;;;;;4966584;28;836;-71
2023/01/07 05:21:23;;;;;;;;;;;18.20;67.30;;;;;;4981485;28;1204;-70
2023/01/07 05:23:49;;;;;;;;;;;18.20;67.20;;;;;;4980733;28;1285;-69
2023/01/07 05:26:14;;;;;;;;;;;18.30;67.00;;;;;;4966100;28;1302;-69
2023/01/07 05:28:39;;;;;;;;;;;18.30;66.90;;;;;;4967090;28;1906;-69
2023/01/07 05:31:05;;;;;;;;;;;18.30;66.80;;;;;;4965897;28;903;-70
2023/01/07 05:33:30;;;;;;;;;;;18.40;66.70;;;;;;4961204;28;1030;-70
2023/01/07 05:35:56;;;;;;;;;;;18.40;66.50;;;;;;4962914;28;1256;-70
2023/01/07 05:38:21;;;;;;;;;;;18.40;66.40;;;;;;4963277;28;1014;-69
2023/01/07 05:40:48;;;;;;;;;;;18.40;66.30;;;;;;4965164;28;953;-70
2023/01/07 05:43:13;;;;;;;;;;;18.50;66.30;;;;;;4966567;28;877;-70
2023/01/07 05:45:39;;;;;;;;;;;18.50;66.20;;;;;;4964131;28;1276;-71
2023/01/07 05:48:04;;;;;;;;;;;18.50;66.10;;;;;;4966134;28;1902;-69
2023/01/07 05:50:30;;;;;;;;;;;18.50;66.00;;;;;;4972885;28;1520;-69
2023/01/07 05:52:55;;;;;;;;;;;18.50;66.00;;;;;;4969159;28;1480;-71
2023/01/07 05:55:21;;;;;;;;;;;18.50;65.90;;;;;;4965307;28;1242;-70
2023/01/07 05:57:46;;;;;;;;;;;18.60;65.90;;;;;;4965105;28;1226;-70
2023/01/07 06:00:12;;;;;;;;;;;18.60;65.80;;;;;;4965534;28;826;-70
2023/01/07 06:02:37;;;;;;;;;;;18.60;65.80;;;;;;4969486;28;1725;-70
2023/01/07 06:05:03;;;;;;;;;;;18.60;65.70;;;;;;4969878;28;1316;-70
2023/01/07 06:07:28;;;;;;;;;;;18.60;65.70;;;;;;4966958;28;1890;-69
2023/01/07 06:09:54;;;;;;;;;;;18.60;65.70;;;;;;4984937;28;1462;-70
2023/01/07 06:12:19;;;;;;;;;;;18.60;65.60;;;;;;4958277;28;844;-70
2023/01/07 06:14:45;;;;;;;;;;;18.60;65.60;;;;;;4968104;28;1384;-69
2023/01/07 06:17:10;;;;;;;;;;;18.60;65.60;;;;;;4971187;28;1014;-69
2023/01/07 06:19:36;;;;;;;;;;;18.60;65.60;;;;;;4986716;28;1515;-71
2023/01/07 06:22:02;;;;;;;;;;;18.60;65.50;;;;;;4968787;28;809;-71
2023/01/07 06:24:27;;;;;;;;;;;18.60;65.50;;;;;;4967702;28;1276;-70
2023/01/07 06:26:53;;;;;;;;;;;18.60;65.50;;;;;;4968787;28;833;-71
2023/01/07 06:29:18;;;;;;;;;;;18.60;65.50;;;;;;4970719;28;1955;-70
2023/01/07 06:31:44;;;;;;;;;;;18.60;65.50;;;;;;4971625;28;1274;-69
2023/01/07 06:34:09;;;;;;;;;;;18.70;65.60;;;;;;4969089;28;915;-70
2023/01/07 06:36:34;;;;;;;;;;;18.60;65.50;;;;;;4972640;28;1269;-69
2023/01/07 06:39:00;;;;;;;;;;;18.60;65.50;;;;;;4970003;28;1351;-70
2023/01/07 06:41:25;;;;;;;;;;;18.70;65.50;;;;;;4971110;28;1014;-69
2023/01/07 06:43:51;;;;;;;;;;;18.70;65.50;;;;;;4969286;28;872;-70
2023/01/07 06:46:16;;;;;;;;;;;18.60;65.50;;;;;;4970119;28;1425;-68
2023/01/07 06:48:42;;;;;;;;;;;18.60;65.50;;;;;;4968757;28;1957;-69
2023/01/07 06:51:07;;;;;;;;;;;18.60;65.50;;;;;;4966416;28;833;-69
2023/01/07 06:53:33;;;;;;;;;;;18.60;65.50;;;;;;4968500;28;1311;-70
2023/01/07 06:55:58;;;;;;;;;;;18.60;65.50;;;;;;4969994;28;1316;-71
2023/01/07 06:58:24;;;;;;;;;;;18.60;65.60;;;;;;4971270;28;875;-70
2023/01/07 07:00:49;;;;;;;;;;;18.60;65.50;;;;;;4968267;28;1003;-69
2023/01/07 07:03:15;;;;;;;;;;;18.60;65.60;;;;;;4974804;28;1284;-69
2023/01/07 07:05:40;;;;;;;;;;;18.60;65.60;;;;;;4970891;28;1354;-69
2023/01/07 07:08:06;;;;;;;;;;;18.60;65.60;;;;;;4954059;28;1895;-69
2023/01/07 07:10:31;;;;;;;;;;;18.60;65.60;;;;;;4970067;28;871;-69
2023/01/07 07:12:56;;;;;;;;;;;18.60;65.60;;;;;;4963675;28;1140;-71
2023/01/07 07:15:22;;;;;;;;;;;18.60;65.70;;;;;;4963888;28;1614;-68
2023/01/07 07:17:47;;;;;;;;;;;18.60;65.70;;;;;;4961242;28;1894;-72
2023/01/07 07:20:13;;;;;;;;;;;18.60;65.70;;;;;;4967797;28;1360;-74
2023/01/07 07:22:43;;;;;;;;;;;18.60;65.70;;;;;;4967963;28;1464;-74
2023/01/07 07:25:08;;;;;;;;;;;18.60;65.70;;;;;;4969812;28;1341;-73
2023/01/07 07:27:34;;;;;;;;;;;18.60;65.80;;;;;;4970946;28;1911;-72
2023/01/07 07:29:59;;;;;;;;;;;18.60;65.80;;;;;;4968243;28;856;-72
2023/01/07 07:32:27;;;;;;;;;;;18.60;65.80;;;;;;4968949;28;791;-73
2023/01/07 07:34:53;;;;;;;;;;;18.60;65.80;;;;;;4966007;28;1302;-72
2023/01/07 07:37:19;;;;;;;;;;;18.60;65.90;;;;;;4967627;28;865;-72
2023/01/07 07:39:44;;;;;;;;;;;18.60;65.90;;;;;;4966470;28;1339;-71
2023/01/07 07:42:10;;;;;;;;;;;18.60;65.90;;;;;;4968379;28;819;-70
2023/01/07 07:44:35;;;;;;;;;;;18.60;65.90;;;;;;4968702;28;1372;-73
2023/01/07 07:47:01;;;;;;;;;;;18.60;65.90;;;;;;4975445;28;920;-74
2023/01/07 07:49:26;;;;;;;;;;;18.50;65.80;;;;;;4963958;28;1954;-75
2023/01/07 07:51:52;;;;;;;;;;;18.50;65.80;;;;;;4966371;28;996;-72
2023/01/07 07:54:17;;;;;;;;;;;18.50;65.90;;;;;;4965598;28;1276;-71
2023/01/07 07:56:43;;;;;;;;;;;18.50;65.90;;;;;;4966420;28;2394;-72
2023/01/07 07:59:08;;;;;;;;;;;18.50;65.90;;;;;;4981486;28;2300;-72
2023/01/07 08:01:34;;;;;;;;;;;18.50;65.90;;;;;;4965269;28;2265;-72
2023/01/07 08:03:59;;;;;;;;;;;18.50;65.90;;;;;;4966603;28;1954;-71
2023/01/07 08:06:25;;;;;;;;;;;18.50;65.90;;;;;;4968530;28;1366;-72
2023/01/07 08:08:50;;;;;;;;;;;18.50;65.90;;;;;;4966773;28;1906;-72
2023/01/07 08:11:16;;;;;;;;;;;18.50;65.90;;;;;;4967201;28;1030;-72
2023/01/07 08:13:41;;;;;;;;;;;18.50;65.90;;;;;;4964837;28;1685;-72
2023/01/07 08:16:07;;;;;;;;;;;18.50;65.90;;;;;;4966842;28;1306;-72
2023/01/07 08:18:32;;;;;;;;;;;18.60;65.90;;;;;;4968221;28;893;-72
2023/01/07 08:20:57;;;;;;;;;;;18.60;65.90;;;;;;4964920;28;1437;-72
2023/01/07 08:23:23;;;;;;;;;;;18.60;65.80;;;;;;4965220;28;1015;-72
2023/01/07 08:25:49;;;;;;;;;;;18.60;65.80;;;;;;4965197;28;1301;-72
2023/01/07 08:28:14;;;;;;;;;;;18.60;65.80;;;;;;4970172;28;1906;-72
2023/01/07 08:30:41;;;;;;;;;;;18.60;65.70;;;;;;4969483;28;990;-72
2023/01/07 08:33:06;;;;;;;;;;;18.60;65.70;;;;;;4963859;28;1363;-71
2023/01/07 08:35:32;;;;;;;;;;;18.60;65.70;;;;;;4966524;28;1280;-71
2023/01/07 08:38:04;;;;;;;;;;;18.60;65.70;;;;;;4967666;28;994;-72
2023/01/07 08:40:29;;;;;;;;;;;18.60;65.60;;;;;;4963831;28;813;-72
2023/01/07 08:42:59;;;;;;;;;;;18.60;65.60;;;;;;4970838;28;872;-72
2023/01/07 08:45:24;;;;;;;;;;;18.60;65.60;;;;;;4967050;28;1280;-72
2023/01/07 08:47:50;;;;;;;;;;;18.60;65.50;;;;;;4965077;28;1903;-72
2023/01/07 08:50:15;;;;;;;;;;;18.60;65.50;;;;;;4965903;28;797;-71
2023/01/07 08:52:40;;;;;;;;;;;18.60;65.50;;;;;;4964724;28;834;-72
2023/01/07 08:55:06;;;;;;;;;;;18.70;65.50;;;;;;4962752;28;1241;-72
2023/01/07 08:57:32;;;;;;;;;;;18.70;65.50;;;;;;4967478;28;835;-72
2023/01/07 08:59:57;;;;;;;;;;;18.60;65.40;;;;;;4985149;28;1291;-72
2023/01/07 09:02:22;;;;;;;;;;;18.70;65.50;;;;;;4966142;28;958;-72
2023/01/07 09:04:48;;;;;;;;;;;18.70;65.40;;;;;;4966657;28;1366;-72
2023/01/07 09:07:13;;;;;;;;;;;18.70;65.40;;;;;;4984863;28;1954;-72
2023/01/07 09:09:40;;;;;;;;;;;18.70;65.40;;;;;;4982538;28;1417;-72
2023/01/07 09:12:05;;;;;;;;;;;18.70;66.10;;;;;;4961762;28;898;-72
2023/01/07 09:14:31;;;;;;;;;;;18.70;65.30;;;;;;4965207;28;1370;-72
2023/01/07 09:16:56;;;;;;;;;;;18.70;65.40;;;;;;4963123;28;896;-72
2023/01/07 09:19:22;;;;;;;;;;;18.70;65.20;;;;;;4965189;28;947;-72
2023/01/07 09:21:47;;;;;;;;;;;18.70;65.20;;;;;;4965023;28;816;-72
2023/01/07 09:24:13;;;;;;;;;;;18.70;65.30;;;;;;4972325;28;1169;-72
2023/01/07 09:26:38;;;;;;;;;;;18.70;65.20;;;;;;4966330;28;1399;-72
2023/01/07 09:29:03;;;;;;;;;;;18.70;65.20;;;;;;4963849;28;1952;-72
2023/01/07 09:31:29;;;;;;;;;;;18.70;65.20;;;;;;4966089;28;1279;-72
2023/01/07 09:33:54;;;;;;;;;;;18.70;65.20;;;;;;4964101;28;1370;-73
2023/01/07 09:36:20;;;;;;;;;;;18.70;65.20;;;;;;4972655;28;1181;-72
2023/01/07 09:38:45;;;;;;;;;;;18.70;65.20;;;;;;4958463;28;1447;-72
2023/01/07 09:41:16;;;;;;;;;;;18.70;65.20;;;;;;4969081;28;836;-72
2023/01/07 09:43:42;;;;;;;;;;;18.70;65.20;;;;;;4970773;28;1295;-72
2023/01/07 09:46:08;;;;;;;;;;;18.80;65.20;;;;;;4956430;28;1350;-72
2023/01/07 09:48:43;;;;;;;;;;;18.80;65.30;;;;;;4969151;28;1894;-72
2023/01/07 09:51:12;;;;;;;;;;;18.70;65.20;;;;;;4972836;28;1105;-72
2023/01/07 09:53:39;;;;;;;;;;;18.70;65.10;;;;;;4973312;28;834;-72
2023/01/07 09:56:05;;;;;;;;;;;18.80;65.20;;;;;;4964325;28;1351;-72
2023/01/07 09:58:31;;;;;;;;;;;18.70;65.10;;;;;;4974423;28;891;-72
2023/01/07 10:00:56;;;;;;;;;;;18.70;65.20;;;;;;4971449;28;851;-72
2023/01/07 10:03:28;;;;;;;;;;;18.70;65.20;;;;;;4969423;28;1344;-72
2023/01/07 10:05:54;;;;;;;;;;;18.70;65.20;;;;;;4970509;28;1242;-72
2023/01/07 10:08:32;;;;;;;;;;;18.70;65.20;;;;;;4986051;28;1951;-72
2023/01/07 10:10:57;;;;;;;;;;;18.70;65.20;;;;;;4971969;28;1050;-72
2023/01/07 10:13:41;;;;;;;;;;;18.80;65.20;;;;;;4971214;28;1586;-72
2023/01/07 10:16:07;;;;;;;;;;;18.70;65.20;;;;;;4973032;28;1320;-72
2023/01/07 10:18:51;;;;;;;;;;;18.70;65.20;;;;;;4973648;28;1013;-72
2023/01/07 10:21:22;;;;;;;;;;;18.70;65.20;;;;;;4973636;28;982;-72
2023/01/07 10:24:01;;;;;;;;;;;18.70;65.20;;;;;;4987606;28;1272;-72
2023/01/07 10:26:37;;;;;;;;;;;18.70;65.20;;;;;;4967749;28;1288;-72
2023/01/07 10:29:07;;;;;;;;;;;18.70;65.20;;;;;;4966936;28;1902;-72
2023/01/07 10:31:32;;;;;;;;;;;18.70;65.20;;;;;;4970471;28;967;-72
2023/01/07 10:33:58;;;;;;;;;;;18.70;65.20;;;;;;4972058;28;871;-72
2023/01/07 10:36:27;;;;;;;;;;;18.70;65.20;;;;;;4973701;28;1291;-70
2023/01/07 10:38:53;;;;;;;;;;;18.70;65.20;;;;;;4969718;28;1510;-72
2023/01/07 10:41:22;;;;;;;;;;;18.70;65.20;;;;;;4970457;28;846;-73
2023/01/07 10:43:48;;;;;;;;;;;18.70;66.00;;;;;;4967051;28;872;-73
2023/01/07 10:46:22;;;;;;;;;;;18.70;65.30;;;;;;4968904;28;1364;-72
2023/01/07 10:48:59;;;;;;;;;;;18.70;65.30;;;;;;4968015;28;1961;-72
2023/01/07 10:51:34;;;;;;;;;;;18.70;65.30;;;;;;4966528;28;846;-72
2023/01/07 10:54:19;;;;;;;;;;;18.70;65.30;;;;;;4968155;28;883;-72
2023/01/07 10:56:45;;;;;;;;;;;18.70;65.30;;;;;;4969703;28;882;-72
2023/01/07 10:59:13;;;;;;;;;;;18.70;65.30;;;;;;4967900;28;1297;-73
2023/01/07 11:01:38;;;;;;;;;;;18.70;65.30;;;;;;4956428;28;1340;-73
2023/01/07 11:04:08;;;;;;;;;;;18.70;65.40;;;;;;4964624;28;1276;-73
2023/01/07 11:06:36;;;;;;;;;;;18.70;65.40;;;;;;4969581;28;1593;-73
2023/01/07 11:09:03;;;;;;;;;;;18.70;65.30;;;;;;4970673;28;1956;-73
2023/01/07 11:11:28;;;;;;;;;;;18.70;65.40;;;;;;4968339;28;927;-73
2023/01/07 11:13:57;;;;;;;;;;;18.70;65.40;;;;;;4966721;28;1386;-73
2023/01/07 11:16:27;;;;;;;;;;;18.70;65.40;;;;;;4969836;28;1344;-72
2023/01/07 11:19:06;;;;;;;;;;;18.70;65.40;;;;;;4964642;28;862;-72
2023/01/07 11:21:31;;;;;;;;;;;18.70;65.40;;;;;;4967669;28;846;-72
2023/01/07 11:23:57;;;;;;;;;;;18.70;65.40;;;;;;4967199;28;833;-72
2023/01/07 11:26:25;;;;;;;;;;;18.70;65.40;;;;;;4966293;28;1362;-72
2023/01/07 11:28:52;;;;;;;;;;;18.70;65.40;;;;;;4965059;28;1902;-72
2023/01/07 11:31:18;;;;;;;;;;;18.70;65.40;;;;;;4967020;28;1286;-73
2023/01/07 11:33:51;;;;;;;;;;;18.70;65.40;;;;;;4966425;28;1022;-73
2023/01/07 11:36:16;;;;;;;;;;;18.70;65.30;;;;;;4966450;28;1303;-73
2023/01/07 11:38:42;;;;;;;;;;;18.70;65.40;;;;;;4967294;28;1366;-72
2023/01/07 11:41:24;;;;;;;;;;;18.70;65.40;;;;;;4963283;28;1185;-72
2023/01/07 11:43:53;;;;;;;;;;;18.70;65.40;;;;;;4965106;28;903;-72
2023/01/07 11:46:19;;;;;;;;;;;18.70;65.40;;;;;;4968712;28;1345;-73
2023/01/07 11:48:52;;;;;;;;;;;18.70;65.40;;;;;;4966472;28;1895;-72
2023/01/07 11:51:18;;;;;;;;;;;18.70;65.40;;;;;;4966300;28;868;-73
2023/01/07 11:53:51;;;;;;;;;;;18.70;65.40;;;;;;4951657;28;1412;-72
2023/01/07 11:56:20;;;;;;;;;;;18.70;65.40;;;;;;4967458;28;1271;-73
2023/01/07 11:58:46;;;;;;;;;;;18.70;65.40;;;;;;4966094;28;892;-73
2023/01/07 12:01:17;;;;;;;;;;;18.70;65.40;;;;;;4962418;28;880;-73
2023/01/07 12:03:52;;;;;;;;;;;18.70;65.40;;;;;;4970474;28;1272;-73
2023/01/07 12:06:18;;;;;;;;;;;18.70;65.40;;;;;;4970927;28;1272;-73
2023/01/07 12:09:02;;;;;;;;;;;18.70;65.40;;;;;;4965569;28;1961;-73
2023/01/07 12:11:38;;;;;;;;;;;18.70;65.40;;;;;;4967403;28;971;-72
2023/01/07 12:14:16;;;;;;;;;;;18.70;65.40;;;;;;4951294;28;1261;-72
2023/01/07 12:16:44;;;;;;;;;;;18.70;65.40;;;;;;4963638;28;1313;-72
2023/01/07 12:19:30;;;;;;;;;;;18.70;65.40;;;;;;4965038;28;912;-73
2023/01/07 12:21:59;;;;;;;;;;;18.70;65.40;;;;;;4967888;28;883;-73
2023/01/07 12:24:44;;;;;;;;;;;18.70;65.40;;;;;;4966783;28;1324;-72
2023/01/07 12:27:13;;;;;;;;;;;18.70;65.40;;;;;;4968966;28;1112;-72
2023/01/07 12:29:50;;;;;;;;;;;18.70;66.20;;;;;;4967176;28;1972;-72
2023/01/07 12:32:16;;;;;;;;;;;18.60;65.40;;;;;;4966522;28;821;-72
2023/01/07 12:34:48;;;;;;;;;;;18.60;65.50;;;;;;4963297;28;1284;-72
2023/01/07 12:37:25;;;;;;;;;;;18.60;65.50;;;;;;4967491;28;876;-73
2023/01/07 12:39:51;;;;;;;;;;;18.60;65.50;;;;;;4981287;28;1388;-72
2023/01/07 12:42:23;;;;;;;;;;;18.60;65.50;;;;;;4967159;28;860;-73
2023/01/07 12:44:50;;;;;;;;;;;18.60;65.60;;;;;;4953750;28;1466;-72
2023/01/07 12:47:25;;;;;;;;;;;18.60;65.60;;;;;;4967732;28;838;-73
2023/01/07 12:49:55;;;;;;;;;;;18.60;65.60;;;;;;4965796;28;1046;-73
2023/01/07 12:52:25;;;;;;;;;;;18.60;65.60;;;;;;4951428;28;2208;-71
2023/01/07 12:54:57;;;;;;;;;;;18.60;65.60;;;;;;4963831;28;1370;-72
2023/01/07 12:57:22;;;;;;;;;;;18.60;65.70;;;;;;4964940;28;1196;-71
2023/01/07 12:59:49;;;;;;;;;;;18.60;65.70;;;;;;4965450;28;915;-72
2023/01/07 13:02:21;;;;;;;;;;;18.60;65.80;;;;;;4950922;28;1254;-72
2023/01/07 13:05:08;;;;;;;;;;;18.60;65.80;;;;;;4964860;28;1316;-72
2023/01/07 13:07:34;;;;;;;;;;;18.60;65.80;;;;;;4963664;28;1902;-72
2023/01/07 13:10:00;;;;;;;;;;;18.60;65.80;;;;;;4973106;28;1381;-72
2023/01/07 13:12:41;;;;;;;;;;;18.60;66.70;;;;;;4951505;28;1196;-72
2023/01/07 13:15:27;;;;;;;;;;;18.50;65.80;;;;;;4962964;28;1279;-71
2023/01/07 13:17:53;;;;;;;;;;;18.50;65.80;;;;;;4963172;28;1360;-72
2023/01/07 13:20:34;;;;;;;;;;;18.50;65.90;;;;;;4963651;28;939;-71
2023/01/07 13:22:59;;;;;;;;;;;18.50;65.90;;;;;;4967251;28;915;-71
2023/01/07 13:25:28;;;;;;;;;;;18.50;66.00;;;;;;4965949;28;1263;-72
2023/01/07 13:28:00;;;;;;;;;;;18.50;66.00;;;;;;4965172;28;1958;-72
2023/01/07 13:30:28;;;;;;;;;;;18.50;66.00;;;;;;4965954;28;938;-72
2023/01/07 13:32:57;;;;;;;;;;;18.50;66.00;;;;;;4962089;28;1878;-72
2023/01/07 13:35:23;;;;;;;;;;;18.50;66.80;;;;;;4965934;28;1732;-72
2023/01/07 13:37:49;;;;;;;;;;;18.50;66.10;;;;;;4965398;28;1194;-73
2023/01/07 13:40:19;;;;;;;;;;;18.50;66.10;;;;;;4978985;28;1287;-72
2023/01/07 13:42:54;;;;;;;;;;;18.50;66.10;;;;;;4960409;28;1291;-72
2023/01/07 13:45:29;;;;;;;;;;;18.50;66.20;;;;;;4966625;28;1483;-72
2023/01/07 13:47:56;;;;;;;;;;;18.50;66.20;;;;;;4965872;28;1956;-72
2023/01/07 13:50:28;;;;;;;;;;;18.50;66.20;;;;;;4964080;28;1420;-73
2023/01/07 13:53:14;;;;;;;;;;;18.50;66.20;;;;;;4968200;28;832;-73
2023/01/07 13:55:43;;;;;;;;;;;18.40;66.20;;;;;;4977027;28;1518;-72
2023/01/07 13:58:27;;;;;;;;;;;18.50;67.00;;;;;;4966985;28;1381;-72
2023/01/07 14:01:05;;;;;;;;;;;18.40;66.30;;;;;;4967800;28;1222;-72
2023/01/07 14:03:49;;;;;;;;;;;18.40;66.30;;;;;;4968066;28;1500;-73
2023/01/07 14:06:22;;;;;;;;;;;18.40;66.30;;;;;;4965246;28;1562;-72
2023/01/07 14:08:50;;;;;;;;;;;18.40;66.30;;;;;;4964418;28;1943;-72
2023/01/07 14:11:40;;;;;;;;;;;18.40;66.30;;;;;;4964472;28;1173;-73
2023/01/07 14:14:24;;;;;;;;;;;18.40;66.30;;;;;;4965378;28;1361;-72
2023/01/07 14:17:01;;;;;;;;;;;18.40;66.30;;;;;;4952645;28;1623;-72
2023/01/07 14:19:33;;;;;;;;;;;18.40;66.40;;;;;;4964832;28;1429;-72
2023/01/07 14:21:58;;;;;;;;;;;18.40;66.40;;;;;;4967460;28;1476;-73
2023/01/07 14:24:42;;;;;;;;;;;18.40;66.50;;;;;;4968588;28;1380;-72
2023/01/07 14:27:10;;;;;;;;;;;18.40;66.50;;;;;;4969866;28;1123;-72
2023/01/07 14:29:40;;;;;;;;;;;18.40;66.50;;;;;;4973428;28;1938;-72
2023/01/07 14:32:12;;;;;;;;;;;18.40;66.50;;;;;;4969002;28;1424;-72
2023/01/07 14:34:38;;;;;;;;;;;18.40;66.50;;;;;;4969662;28;1310;-72
2023/01/07 14:37:03;;;;;;;;;;;18.40;66.50;;;;;;4967531;28;1496;-72
2023/01/07 14:39:29;;;;;;;;;;;18.30;66.50;;;;;;4969434;28;1038;-72
2023/01/07 14:42:17;;;;;;;;;;;18.30;66.50;;;;;;4972559;28;994;-72